sensor_id;sensor_type;location;lat;lon;timestamp;pressure;altitude;pressure_sealevel;temperature;humidity
16738;BME280;17906;47.684;10.806;2023-01-28T00:01:07;93406.53;;;-5.07;100.00
16738;BME280;17906;47.684;10.806;2023-01-28T00:03:34;93399.91;;;-5.11;100.00
16738;BME280;17906;47.684;10.806;2023-01-28T00:06:01;93409.03;;;-5.06;100.00
16738;BME280;17906;47.684;10.806;2023-01-28T00:08:28;93405.19;;;-5.11;100.00
16738;BME280;17906;47.684;10.806;2023-01-28T00:10:57;93404.22;;;-5.10;100.00
16738;BME280;17906;47.684;10.806;2023-01-28T00:13:26;93416.44;;;-5.09;100.00
16738;BME280;17906;47.684;10.806;2023-01-28T00:15:54;93414.06;;;-5.12;100.00
16738;BME280;17906;47.684;10.806;2023-01-28T00:18:21;93410.09;;;-5.16;100.00
16738;BME280;17906;47.684;10.806;2023-01-28T00:20:55;93409.00;;;-5.24;100.00
16738;BME280;17906;47.684;10.806;2023-01-28T00:23:22;93417.63;;;-5.22;100.00
16738;BME280;17906;47.684;10.806;2023-01-28T00:25:49;93415.28;;;-5.25;100.00
16738;BME280;17906;47.684;10.806;2023-01-28T00:28:15;93409.69;;;-5.39;100.00
16738;BME280;17906;47.684;10.806;2023-01-28T00:30:43;93409.00;;;-5.41;100.00
16738;BME280;17906;47.684;10.806;2023-01-28T00:33:10;93402.59;;;-5.39;100.00
16738;BME280;17906;47.684;10.806;2023-01-28T00:35:37;93403.56;;;-5.40;100.00
16738;BME280;17906;47.684;10.806;2023-01-28T00:38:04;93408.16;;;-5.42;100.00
16738;BME280;17906;47.684;10.806;2023-01-28T00:40:31;93412.91;;;-5.45;100.00
16738;BME280;17906;47.684;10.806;2023-01-28T00:42:57;93413.47;;;-5.42;100.00
16738;BME280;17906;47.684;10.806;2023-01-28T00:45:24;93406.94;;;-5.47;100.00
16738;BME280;17906;47.684;10.806;2023-01-28T00:47:52;93408.69;;;-5.38;100.00
16738;BME280;17906;47.684;10.806;2023-01-28T00:50:19;93404.31;;;-5.47;100.00
16738;BME280;17906;47.684;10.806;2023-01-28T00:52:46;93403.31;;;-5.46;100.00
16738;BME280;17906;47.684;10.806;2023-01-28T00:55:14;93407.34;;;-5.42;100.00
16738;BME280;17906;47.684;10.806;2023-01-28T00:57:40;93405.97;;;-5.46;100.00
16738;BME280;17906;47.684;10.806;2023-01-28T01:00:08;93401.50;;;-5.46;100.00
16738;BME280;17906;47.684;10.806;2023-01-28T01:02:34;93411.25;;;-5.46;100.00
16738;BME280;17906;47.684;10.806;2023-01-28T01:05:02;93409.97;;;-5.42;100.00
16738;BME280;17906;47.684;10.806;2023-01-28T01:07:30;93409.78;;;-5.31;100.00
16738;BME280;17906;47.684;10.806;2023-01-28T01:10:07;93405.63;;;-5.34;100.00
16738;BME280;17906;47.684;10.806;2023-01-28T01:12:34;93409.78;;;-5.31;100.00
16738;BME280;17906;47.684;10.806;2023-01-28T01:15:01;93422.31;;;-5.33;100.00
16738;BME280;17906;47.684;10.806;2023-01-28T01:17:29;93409.63;;;-5.30;100.00
16738;BME280;17906;47.684;10.806;2023-01-28T01:19:56;93418.06;;;-5.26;100.00
16738;BME280;17906;47.684;10.806;2023-01-28T01:22:23;93409.31;;;-5.27;100.00
16738;BME280;17906;47.684;10.806;2023-01-28T01:24:50;93422.94;;;-5.22;100.00
16738;BME280;17906;47.684;10.806;2023-01-28T01:27:17;93409.88;;;-5.23;100.00
16738;BME280;17906;47.684;10.806;2023-01-28T01:29:43;93411.81;;;-5.25;100.00
16738;BME280;17906;47.684;10.806;2023-01-28T01:32:10;93407.06;;;-5.22;100.00
16738;BME280;17906;47.684;10.806;2023-01-28T01:34:37;93420.50;;;-5.33;100.00
16738;BME280;17906;47.684;10.806;2023-01-28T01:37:03;93425.38;;;-5.38;100.00
16738;BME280;17906;47.684;10.806;2023-01-28T01:39:33;93423.19;;;-5.42;100.00
16738;BME280;17906;47.684;10.806;2023-01-28T01:42:01;93425.53;;;-5.39;100.00
16738;BME280;17906;47.684;10.806;2023-01-28T01:44:54;93435.09;;;-5.38;100.00
16738;BME280;17906;47.684;10.806;2023-01-28T01:47:23;93433.31;;;-5.38;100.00
16738;BME280;17906;47.684;10.806;2023-01-28T01:49:51;93426.19;;;-5.37;100.00
16738;BME280;17906;47.684;10.806;2023-01-28T01:52:21;93427.34;;;-5.40;100.00
16738;BME280;17906;47.684;10.806;2023-01-28T01:54:54;93432.47;;;-5.38;100.00
16738;BME280;17906;47.684;10.806;2023-01-28T01:57:27;93436.47;;;-5.34;100.00
16738;BME280;17906;47.684;10.806;2023-01-28T01:59:55;93429.69;;;-5.37;100.00
16738;BME280;17906;47.684;10.806;2023-01-28T02:02:31;93420.25;;;-5.39;100.00
16738;BME280;17906;47.684;10.806;2023-01-28T02:05:01;93422.59;;;-5.36;100.00
16738;BME280;17906;47.684;10.806;2023-01-28T02:07:27;93420.34;;;-5.31;100.00
16738;BME280;17906;47.684;10.806;2023-01-28T02:09:55;93415.06;;;-5.31;100.00
16738;BME280;17906;47.684;10.806;2023-01-28T02:12:25;93416.19;;;-5.34;100.00
16738;BME280;17906;47.684;10.806;2023-01-28T02:14:54;93423.34;;;-5.44;100.00
16738;BME280;17906;47.684;10.806;2023-01-28T02:17:23;93421.91;;;-5.38;100.00
16738;BME280;17906;47.684;10.806;2023-01-28T02:19:53;93424.28;;;-5.45;100.00
16738;BME280;17906;47.684;10.806;2023-01-28T02:22:54;93420.00;;;-5.46;100.00
16738;BME280;17906;47.684;10.806;2023-01-28T02:25:57;93414.13;;;-5.40;100.00
16738;BME280;17906;47.684;10.806;2023-01-28T02:28:33;93417.91;;;-5.42;100.00
16738;BME280;17906;47.684;10.806;2023-01-28T02:31:08;93410.97;;;-5.43;100.00
16738;BME280;17906;47.684;10.806;2023-01-28T02:33:40;93417.34;;;-5.46;100.00
16738;BME280;17906;47.684;10.806;2023-01-28T02:36:16;93417.06;;;-5.43;100.00
16738;BME280;17906;47.684;10.806;2023-01-28T02:38:48;93419.16;;;-5.46;100.00
16738;BME280;17906;47.684;10.806;2023-01-28T02:41:22;93424.91;;;-5.51;100.00
16738;BME280;17906;47.684;10.806;2023-01-28T02:43:51;93421.84;;;-5.56;100.00
16738;BME280;17906;47.684;10.806;2023-01-28T02:46:21;93416.56;;;-5.56;100.00
16738;BME280;17906;47.684;10.806;2023-01-28T02:49:09;93417.72;;;-5.59;100.00
16738;BME280;17906;47.684;10.806;2023-01-28T02:51:51;93419.22;;;-5.56;100.00
16738;BME280;17906;47.684;10.806;2023-01-28T02:54:33;93409.94;;;-5.60;100.00
16738;BME280;17906;47.684;10.806;2023-01-28T02:57:10;93412.84;;;-5.54;100.00
16738;BME280;17906;47.684;10.806;2023-01-28T02:59:48;93412.88;;;-5.63;100.00
16738;BME280;17906;47.684;10.806;2023-01-28T03:02:22;93415.06;;;-5.59;100.00
16738;BME280;17906;47.684;10.806;2023-01-28T03:04:55;93411.75;;;-5.61;100.00
16738;BME280;17906;47.684;10.806;2023-01-28T03:07:26;93412.19;;;-5.65;100.00
16738;BME280;17906;47.684;10.806;2023-01-28T03:09:55;93417.19;;;-5.62;100.00
16738;BME280;17906;47.684;10.806;2023-01-28T03:12:25;93429.97;;;-5.67;100.00
16738;BME280;17906;47.684;10.806;2023-01-28T03:15:13;93441.28;;;-5.75;100.00
16738;BME280;17906;47.684;10.806;2023-01-28T03:18:01;93422.34;;;-5.70;100.00
16738;BME280;17906;47.684;10.806;2023-01-28T03:20:51;93430.94;;;-5.68;100.00
16738;BME280;17906;47.684;10.806;2023-01-28T03:23:43;93430.69;;;-5.65;100.00
16738;BME280;17906;47.684;10.806;2023-01-28T03:26:34;93421.09;;;-5.66;100.00
16738;BME280;17906;47.684;10.806;2023-01-28T03:29:22;93435.81;;;-5.64;100.00
16738;BME280;17906;47.684;10.806;2023-01-28T03:32:10;93431.66;;;-5.66;100.00
16738;BME280;17906;47.684;10.806;2023-01-28T03:34:55;93454.81;;;-5.60;100.00
16738;BME280;17906;47.684;10.806;2023-01-28T03:37:39;93450.63;;;-5.53;100.00
16738;BME280;17906;47.684;10.806;2023-01-28T03:40:06;93448.56;;;-5.59;100.00
16738;BME280;17906;47.684;10.806;2023-01-28T03:42:33;93454.81;;;-5.60;100.00
16738;BME280;17906;47.684;10.806;2023-01-28T03:45:00;93453.00;;;-5.60;100.00
16738;BME280;17906;47.684;10.806;2023-01-28T03:47:31;93452.88;;;-5.58;100.00
16738;BME280;17906;47.684;10.806;2023-01-28T03:49:58;93456.75;;;-5.53;100.00
16738;BME280;17906;47.684;10.806;2023-01-28T03:52:26;93452.00;;;-5.49;100.00
16738;BME280;17906;47.684;10.806;2023-01-28T03:54:54;93446.84;;;-5.51;100.00
16738;BME280;17906;47.684;10.806;2023-01-28T03:57:22;93451.31;;;-5.51;100.00
16738;BME280;17906;47.684;10.806;2023-01-28T03:59:50;93452.28;;;-5.52;100.00
16738;BME280;17906;47.684;10.806;2023-01-28T04:02:18;93453.13;;;-5.52;100.00
16738;BME280;17906;47.684;10.806;2023-01-28T04:04:47;93446.28;;;-5.44;100.00
16738;BME280;17906;47.684;10.806;2023-01-28T04:07:14;93449.19;;;-5.47;100.00
16738;BME280;17906;47.684;10.806;2023-01-28T04:09:42;93454.31;;;-5.46;100.00
16738;BME280;17906;47.684;10.806;2023-01-28T04:12:08;93461.63;;;-5.58;100.00
16738;BME280;17906;47.684;10.806;2023-01-28T04:14:35;93460.94;;;-5.60;100.00
16738;BME280;17906;47.684;10.806;2023-01-28T04:17:03;93461.34;;;-5.55;100.00
16738;BME280;17906;47.684;10.806;2023-01-28T04:19:31;93465.50;;;-5.52;100.00
16738;BME280;17906;47.684;10.806;2023-01-28T04:22:04;93465.59;;;-5.44;100.00
16738;BME280;17906;47.684;10.806;2023-01-28T04:24:32;93470.78;;;-5.52;100.00
16738;BME280;17906;47.684;10.806;2023-01-28T04:26:58;93467.69;;;-5.47;100.00
16738;BME280;17906;47.684;10.806;2023-01-28T04:29:25;93464.50;;;-5.51;100.00
16738;BME280;17906;47.684;10.806;2023-01-28T04:31:52;93472.97;;;-5.47;100.00
16738;BME280;17906;47.684;10.806;2023-01-28T04:34:18;93464.38;;;-5.49;100.00
16738;BME280;17906;47.684;10.806;2023-01-28T04:36:46;93472.59;;;-5.53;100.00
16738;BME280;17906;47.684;10.806;2023-01-28T04:39:14;93468.81;;;-5.50;100.00
16738;BME280;17906;47.684;10.806;2023-01-28T04:41:41;93478.09;;;-5.46;100.00
16738;BME280;17906;47.684;10.806;2023-01-28T04:44:07;93482.69;;;-5.48;100.00
16738;BME280;17906;47.684;10.806;2023-01-28T04:46:34;93473.25;;;-5.51;100.00
16738;BME280;17906;47.684;10.806;2023-01-28T04:49:00;93473.16;;;-5.59;100.00
16738;BME280;17906;47.684;10.806;2023-01-28T04:51:27;93473.84;;;-5.57;100.00
16738;BME280;17906;47.684;10.806;2023-01-28T04:53:54;93473.47;;;-5.62;100.00
16738;BME280;17906;47.684;10.806;2023-01-28T04:56:22;93489.41;;;-5.54;100.00
16738;BME280;17906;47.684;10.806;2023-01-28T04:58:48;93483.38;;;-5.46;100.00
16738;BME280;17906;47.684;10.806;2023-01-28T05:01:15;93484.41;;;-5.57;100.00
16738;BME280;17906;47.684;10.806;2023-01-28T05:03:41;93489.00;;;-5.59;100.00
16738;BME280;17906;47.684;10.806;2023-01-28T05:06:08;93499.03;;;-5.62;100.00
16738;BME280;17906;47.684;10.806;2023-01-28T05:08:35;93496.53;;;-5.64;100.00
16738;BME280;17906;47.684;10.806;2023-01-28T05:11:01;93504.59;;;-5.65;100.00
16738;BME280;17906;47.684;10.806;2023-01-28T05:13:29;93496.44;;;-5.72;100.00
16738;BME280;17906;47.684;10.806;2023-01-28T05:15:56;93505.03;;;-5.70;100.00
16738;BME280;17906;47.684;10.806;2023-01-28T05:18:22;93500.59;;;-5.79;100.00
16738;BME280;17906;47.684;10.806;2023-01-28T05:20:49;93503.66;;;-5.74;100.00
16738;BME280;17906;47.684;10.806;2023-01-28T05:23:16;93500.03;;;-5.73;100.00
16738;BME280;17906;47.684;10.806;2023-01-28T05:25:42;93506.16;;;-5.72;100.00
16738;BME280;17906;47.684;10.806;2023-01-28T05:28:09;93503.09;;;-5.77;100.00
16738;BME280;17906;47.684;10.806;2023-01-28T05:30:37;93509.34;;;-5.78;100.00
16738;BME280;17906;47.684;10.806;2023-01-28T05:33:04;93510.59;;;-5.73;100.00
16738;BME280;17906;47.684;10.806;2023-01-28T05:35:31;93511.00;;;-5.77;100.00
16738;BME280;17906;47.684;10.806;2023-01-28T05:37:57;93510.91;;;-5.76;100.00
16738;BME280;17906;47.684;10.806;2023-01-28T05:40:24;93512.94;;;-5.70;100.00
16738;BME280;17906;47.684;10.806;2023-01-28T05:42:50;93512.41;;;-5.73;100.00
16738;BME280;17906;47.684;10.806;2023-01-28T05:45:17;93519.66;;;-5.75;100.00
16738;BME280;17906;47.684;10.806;2023-01-28T05:47:45;93519.78;;;-5.77;100.00
16738;BME280;17906;47.684;10.806;2023-01-28T05:50:12;93515.47;;;-5.78;100.00
16738;BME280;17906;47.684;10.806;2023-01-28T05:52:39;93520.63;;;-5.76;100.00
16738;BME280;17906;47.684;10.806;2023-01-28T05:55:06;93524.34;;;-5.79;100.00
16738;BME280;17906;47.684;10.806;2023-01-28T05:57:33;93529.78;;;-5.81;100.00
16738;BME280;17906;47.684;10.806;2023-01-28T06:00:00;93530.09;;;-5.84;100.00
16738;BME280;17906;47.684;10.806;2023-01-28T06:02:26;93529.78;;;-5.81;100.00
16738;BME280;17906;47.684;10.806;2023-01-28T06:04:54;93530.09;;;-5.84;100.00
16738;BME280;17906;47.684;10.806;2023-01-28T06:07:21;93534.53;;;-5.84;100.00
16738;BME280;17906;47.684;10.806;2023-01-28T06:09:48;93537.03;;;-5.83;100.00
16738;BME280;17906;47.684;10.806;2023-01-28T06:12:15;93543.97;;;-5.82;100.00
16738;BME280;17906;47.684;10.806;2023-01-28T06:14:41;93543.00;;;-5.81;100.00
16738;BME280;17906;47.684;10.806;2023-01-28T06:17:08;93543.66;;;-5.78;100.00
16738;BME280;17906;47.684;10.806;2023-01-28T06:19:34;93556.47;;;-5.74;100.00
16738;BME280;17906;47.684;10.806;2023-01-28T06:22:02;93553.81;;;-5.74;100.00
16738;BME280;17906;47.684;10.806;2023-01-28T06:24:29;93553.97;;;-5.75;100.00
16738;BME280;17906;47.684;10.806;2023-01-28T06:26:55;93556.75;;;-5.77;100.00
16738;BME280;17906;47.684;10.806;2023-01-28T06:29:22;93554.53;;;-5.82;100.00
16738;BME280;17906;47.684;10.806;2023-01-28T06:31:49;93553.16;;;-5.86;100.00
16738;BME280;17906;47.684;10.806;2023-01-28T06:34:15;93553.00;;;-5.84;100.00
16738;BME280;17906;47.684;10.806;2023-01-28T06:36:42;93559.25;;;-5.85;100.00
16738;BME280;17906;47.684;10.806;2023-01-28T06:39:10;93563.56;;;-5.84;100.00
16738;BME280;17906;47.684;10.806;2023-01-28T06:41:36;93560.25;;;-5.86;100.00
16738;BME280;17906;47.684;10.806;2023-01-28T06:44:03;93561.59;;;-5.82;100.00
16738;BME280;17906;47.684;10.806;2023-01-28T06:46:30;93565.66;;;-5.88;100.00
16738;BME280;17906;47.684;10.806;2023-01-28T06:48:56;93572.59;;;-5.87;100.00
16738;BME280;17906;47.684;10.806;2023-01-28T06:51:23;93565.66;;;-5.88;100.00
16738;BME280;17906;47.684;10.806;2023-01-28T06:53:49;93574.81;;;-5.82;100.00
16738;BME280;17906;47.684;10.806;2023-01-28T06:56:17;93567.59;;;-5.90;100.00
16738;BME280;17906;47.684;10.806;2023-01-28T06:58:44;93568.56;;;-5.91;100.00
16738;BME280;17906;47.684;10.806;2023-01-28T07:01:10;93571.88;;;-5.89;100.00
16738;BME280;17906;47.684;10.806;2023-01-28T07:03:37;93567.59;;;-5.90;100.00
16738;BME280;17906;47.684;10.806;2023-01-28T07:06:04;93570.53;;;-5.93;100.00
16738;BME280;17906;47.684;10.806;2023-01-28T07:08:31;93568.56;;;-5.91;100.00
16738;BME280;17906;47.684;10.806;2023-01-28T07:10:57;93563.72;;;-5.95;100.00
16738;BME280;17906;47.684;10.806;2023-01-28T07:13:26;93570.13;;;-5.98;100.00
16738;BME280;17906;47.684;10.806;2023-01-28T07:15:52;93565.25;;;-5.93;100.00
16738;BME280;17906;47.684;10.806;2023-01-28T07:18:19;93567.88;;;-5.93;100.00
16738;BME280;17906;47.684;10.806;2023-01-28T07:20:45;93570.13;;;-5.88;100.00
16738;BME280;17906;47.684;10.806;2023-01-28T07:23:12;93572.88;;;-5.90;100.00
16738;BME280;17906;47.684;10.806;2023-01-28T07:25:38;93578.16;;;-5.90;100.00
16738;BME280;17906;47.684;10.806;2023-01-28T07:28:05;93581.91;;;-5.92;100.00
16738;BME280;17906;47.684;10.806;2023-01-28T07:30:33;93585.53;;;-5.93;100.00
16738;BME280;17906;47.684;10.806;2023-01-28T07:33:00;93578.59;;;-5.94;100.00
16738;BME280;17906;47.684;10.806;2023-01-28T07:35:26;93585.53;;;-5.93;100.00
16738;BME280;17906;47.684;10.806;2023-01-28T07:37:55;93592.59;;;-5.94;100.00
16738;BME280;17906;47.684;10.806;2023-01-28T07:40:23;93589.81;;;-5.92;100.00
16738;BME280;17906;47.684;10.806;2023-01-28T07:42:50;93590.13;;;-5.95;100.00
16738;BME280;17906;47.684;10.806;2023-01-28T07:45:19;93585.53;;;-5.93;100.00
16738;BME280;17906;47.684;10.806;2023-01-28T07:47:54;93595.09;;;-5.92;100.00
16738;BME280;17906;47.684;10.806;2023-01-28T07:50:20;93601.34;;;-5.93;100.00
16738;BME280;17906;47.684;10.806;2023-01-28T07:52:47;93604.97;;;-5.94;100.00
16738;BME280;17906;47.684;10.806;2023-01-28T07:55:14;93609.28;;;-5.93;100.00
16738;BME280;17906;47.684;10.806;2023-01-28T07:57:51;93615.38;;;-5.93;100.00
16738;BME280;17906;47.684;10.806;2023-01-28T08:00:18;93616.50;;;-5.86;100.00
16738;BME280;17906;47.684;10.806;2023-01-28T08:02:45;93614.41;;;-5.82;100.00
16738;BME280;17906;47.684;10.806;2023-01-28T08:05:15;93617.34;;;-5.85;100.00
16738;BME280;17906;47.684;10.806;2023-01-28T08:07:43;93622.91;;;-5.88;100.00
16738;BME280;17906;47.684;10.806;2023-01-28T08:10:10;93622.75;;;-5.87;100.00
16738;BME280;17906;47.684;10.806;2023-01-28T08:12:37;93634.41;;;-5.89;100.00
16738;BME280;17906;47.684;10.806;2023-01-28T08:15:05;93639.69;;;-5.89;100.00
16738;BME280;17906;47.684;10.806;2023-01-28T08:17:32;93640.66;;;-5.81;100.00
16738;BME280;17906;47.684;10.806;2023-01-28T08:19:59;93642.06;;;-5.76;100.00
16738;BME280;17906;47.684;10.806;2023-01-28T08:22:27;93639.81;;;-5.71;100.00
16738;BME280;17906;47.684;10.806;2023-01-28T08:24:53;93644.41;;;-5.73;100.00
16738;BME280;17906;47.684;10.806;2023-01-28T08:27:20;93646.50;;;-5.77;100.00
16738;BME280;17906;47.684;10.806;2023-01-28T08:29:47;93652.63;;;-5.76;100.00
16738;BME280;17906;47.684;10.806;2023-01-28T08:32:14;93654.13;;;-5.84;100.00
16738;BME280;17906;47.684;10.806;2023-01-28T08:34:41;93656.63;;;-5.82;100.00
16738;BME280;17906;47.684;10.806;2023-01-28T08:37:07;93659.56;;;-5.85;100.00
16738;BME280;17906;47.684;10.806;2023-01-28T08:39:35;93654.81;;;-5.82;100.00
16738;BME280;17906;47.684;10.806;2023-01-28T08:42:02;93658.00;;;-5.78;100.00
16738;BME280;17906;47.684;10.806;2023-01-28T08:44:28;93661.63;;;-5.69;100.00
16738;BME280;17906;47.684;10.806;2023-01-28T08:46:55;93662.75;;;-5.72;100.00
16738;BME280;17906;47.684;10.806;2023-01-28T08:49:21;93660.66;;;-5.68;100.00
16738;BME280;17906;47.684;10.806;2023-01-28T08:51:48;93668.84;;;-5.71;100.00
16738;BME280;17906;47.684;10.806;2023-01-28T08:54:14;93671.63;;;-5.73;100.00
16738;BME280;17906;47.684;10.806;2023-01-28T08:56:42;93670.22;;;-5.67;100.00
16738;BME280;17906;47.684;10.806;2023-01-28T08:59:09;93670.38;;;-5.69;100.00
16738;BME280;17906;47.684;10.806;2023-01-28T09:01:35;93673.84;;;-5.68;100.00
16738;BME280;17906;47.684;10.806;2023-01-28T09:04:02;93670.22;;;-5.67;100.00
16738;BME280;17906;47.684;10.806;2023-01-28T09:06:29;93674.28;;;-5.63;100.00
16738;BME280;17906;47.684;10.806;2023-01-28T09:08:56;93680.94;;;-5.59;100.00
16738;BME280;17906;47.684;10.806;2023-01-28T09:11:23;93674.00;;;-5.60;100.00
16738;BME280;17906;47.684;10.806;2023-01-28T09:13:51;93670.22;;;-5.67;100.00
16738;BME280;17906;47.684;10.806;2023-01-28T09:16:17;93674.13;;;-5.52;100.00
16738;BME280;17906;47.684;10.806;2023-01-28T09:18:44;93669.00;;;-5.54;100.00
16738;BME280;17906;47.684;10.806;2023-01-28T09:21:12;93679.66;;;-5.45;100.00
16738;BME280;17906;47.684;10.806;2023-01-28T09:23:39;93676.63;;;-5.51;100.00
16738;BME280;17906;47.684;10.806;2023-01-28T09:26:06;93676.59;;;-5.41;100.00
16738;BME280;17906;47.684;10.806;2023-01-28T09:28:33;93685.78;;;-5.45;100.00
16738;BME280;17906;47.684;10.806;2023-01-28T09:31:02;93686.34;;;-5.41;100.00
16738;BME280;17906;47.684;10.806;2023-01-28T09:33:29;93692.84;;;-5.36;100.00
16738;BME280;17906;47.684;10.806;2023-01-28T09:35:58;93688.00;;;-5.40;100.00
16738;BME280;17906;47.684;10.806;2023-01-28T09:38:25;93687.84;;;-5.29;100.00
16738;BME280;17906;47.684;10.806;2023-01-28T09:40:52;93695.09;;;-5.31;100.00
16738;BME280;17906;47.684;10.806;2023-01-28T09:43:44;93694.50;;;-5.25;100.00
16738;BME280;17906;47.684;10.806;2023-01-28T09:46:17;93683.53;;;-5.30;100.00
16738;BME280;17906;47.684;10.806;2023-01-28T09:48:46;93687.31;;;-5.33;100.00
16738;BME280;17906;47.684;10.806;2023-01-28T09:51:26;93693.66;;;-5.26;100.00
16738;BME280;17906;47.684;10.806;2023-01-28T09:53:56;93687.25;;;-5.13;100.00
16738;BME280;17906;47.684;10.806;2023-01-28T09:56:25;93689.72;;;-5.02;100.00
16738;BME280;17906;47.684;10.806;2023-01-28T09:58:53;93685.81;;;-4.98;100.00
16738;BME280;17906;47.684;10.806;2023-01-28T10:01:35;93682.03;;;-4.86;100.00
16738;BME280;17906;47.684;10.806;2023-01-28T10:04:12;93684.81;;;-4.87;100.00
16738;BME280;17906;47.684;10.806;2023-01-28T10:06:53;93676.88;;;-4.87;100.00
16738;BME280;17906;47.684;10.806;2023-01-28T10:09:32;93673.22;;;-4.77;100.00
16738;BME280;17906;47.684;10.806;2023-01-28T10:12:12;93682.97;;;-4.77;100.00
16738;BME280;17906;47.684;10.806;2023-01-28T10:14:52;93674.34;;;-4.79;100.00
16738;BME280;17906;47.684;10.806;2023-01-28T10:17:26;93669.50;;;-4.94;100.00
16738;BME280;17906;47.684;10.806;2023-01-28T10:19:56;93677.22;;;-5.00;100.00
16738;BME280;17906;47.684;10.806;2023-01-28T10:22:28;93670.94;;;-4.99;100.00
16738;BME280;17906;47.684;10.806;2023-01-28T10:24:57;93666.22;;;-5.05;100.00
16738;BME280;17906;47.684;10.806;2023-01-28T10:27:31;93666.19;;;-4.96;100.00
16738;BME280;17906;47.684;10.806;2023-01-28T10:29:59;93667.16;;;-4.97;100.00
16738;BME280;17906;47.684;10.806;2023-01-28T10:32:42;93664.34;;;-4.85;100.00
16738;BME280;17906;47.684;10.806;2023-01-28T10:35:09;93659.97;;;-4.67;100.00
16738;BME280;17906;47.684;10.806;2023-01-28T10:37:39;93662.91;;;-4.80;100.00
16738;BME280;17906;47.684;10.806;2023-01-28T10:40:11;93665.72;;;-4.81;99.72
16738;BME280;17906;47.684;10.806;2023-01-28T10:42:39;93663.63;;;-4.78;100.00
16738;BME280;17906;47.684;10.806;2023-01-28T10:45:12;93668.63;;;-4.75;100.00
16738;BME280;17906;47.684;10.806;2023-01-28T10:47:44;93670.72;;;-4.78;100.00
16738;BME280;17906;47.684;10.806;2023-01-28T10:50:15;93668.19;;;-4.80;100.00
16738;BME280;17906;47.684;10.806;2023-01-28T10:52:52;93669.72;;;-4.68;100.00
16738;BME280;17906;47.684;10.806;2023-01-28T10:55:18;93674.34;;;-4.79;100.00
16738;BME280;17906;47.684;10.806;2023-01-28T10:57:45;93676.59;;;-4.84;100.00
16738;BME280;17906;47.684;10.806;2023-01-28T11:00:21;93667.00;;;-4.85;100.00
16738;BME280;17906;47.684;10.806;2023-01-28T11:02:50;93660.16;;;-4.78;100.00
16738;BME280;17906;47.684;10.806;2023-01-28T11:05:19;93661.88;;;-4.69;100.00
16738;BME280;17906;47.684;10.806;2023-01-28T11:07:46;93661.97;;;-4.79;100.00
16738;BME280;17906;47.684;10.806;2023-01-28T11:10:29;93663.31;;;-4.75;100.00
16738;BME280;17906;47.684;10.806;2023-01-28T11:12:59;93665.97;;;-4.75;99.96
16738;BME280;17906;47.684;10.806;2023-01-28T11:15:26;93662.69;;;-4.59;99.95
16738;BME280;17906;47.684;10.806;2023-01-28T11:17:56;93660.59;;;-4.55;99.28
16738;BME280;17906;47.684;10.806;2023-01-28T11:20:26;93667.34;;;-4.43;99.05
16738;BME280;17906;47.684;10.806;2023-01-28T11:22:54;93671.31;;;-4.29;97.05
16738;BME280;17906;47.684;10.806;2023-01-28T11:25:27;93659.69;;;-4.19;97.89
16738;BME280;17906;47.684;10.806;2023-01-28T11:27:55;93656.06;;;-4.00;95.82
16738;BME280;17906;47.684;10.806;2023-01-28T11:30:25;93660.00;;;-3.86;95.85
16738;BME280;17906;47.684;10.806;2023-01-28T11:32:56;93664.75;;;-3.72;94.64
16738;BME280;17906;47.684;10.806;2023-01-28T11:35:25;93663.50;;;-3.68;91.95
16738;BME280;17906;47.684;10.806;2023-01-28T11:37:54;93657.94;;;-3.74;93.10
16738;BME280;17906;47.684;10.806;2023-01-28T11:40:21;93650.44;;;-3.61;92.25
16738;BME280;17906;47.684;10.806;2023-01-28T11:42:49;93657.47;;;-3.52;92.37
16738;BME280;17906;47.684;10.806;2023-01-28T11:45:18;93649.66;;;-3.36;91.49
16738;BME280;17906;47.684;10.806;2023-01-28T11:47:54;93652.91;;;-2.98;88.57
16738;BME280;17906;47.684;10.806;2023-01-28T11:50:35;93656.69;;;-3.01;87.05
16738;BME280;17906;47.684;10.806;2023-01-28T11:56:23;93651.09;;;-2.64;85.79
16738;BME280;17906;47.684;10.806;2023-01-28T11:59:00;93644.56;;;-2.77;85.52
16738;BME280;17906;47.684;10.806;2023-01-28T12:01:36;93639.22;;;-2.51;87.30
16738;BME280;17906;47.684;10.806;2023-01-28T12:04:17;93644.81;;;-2.54;83.36
16738;BME280;17906;47.684;10.806;2023-01-28T12:07:12;93630.38;;;-2.18;83.02
16738;BME280;17906;47.684;10.806;2023-01-28T12:09:50;93639.31;;;-2.27;82.19
16738;BME280;17906;47.684;10.806;2023-01-28T12:12:52;93642.38;;;-2.48;81.43
16738;BME280;17906;47.684;10.806;2023-01-28T12:18:40;93641.16;;;-3.22;84.61
16738;BME280;17906;47.684;10.806;2023-01-28T12:21:15;93645.28;;;-3.45;85.24
16738;BME280;17906;47.684;10.806;2023-01-28T12:24:00;93643.03;;;-3.58;87.20
16738;BME280;17906;47.684;10.806;2023-01-28T12:26:40;93648.41;;;-3.85;86.97
16738;BME280;17906;47.684;10.806;2023-01-28T12:29:19;93652.72;;;-3.66;87.94
16738;BME280;17906;47.684;10.806;2023-01-28T12:32:01;93655.00;;;-3.54;86.29
16738;BME280;17906;47.684;10.806;2023-01-28T12:34:44;93649.09;;;-3.48;85.71
16738;BME280;17906;47.684;10.806;2023-01-28T12:37:22;93653.75;;;-3.41;86.11
16738;BME280;17906;47.684;10.806;2023-01-28T12:40:01;93653.41;;;-3.47;85.41
16738;BME280;17906;47.684;10.806;2023-01-28T12:42:34;93655.72;;;-3.43;83.76
16738;BME280;17906;47.684;10.806;2023-01-28T12:45:13;93655.50;;;-3.50;85.15
16738;BME280;17906;47.684;10.806;2023-01-28T12:47:45;93655.47;;;-3.58;86.92
16738;BME280;17906;47.684;10.806;2023-01-28T12:50:18;93661.13;;;-3.53;88.58
16738;BME280;17906;47.684;10.806;2023-01-28T12:52:51;93663.69;;;-3.61;87.08
16738;BME280;17906;47.684;10.806;2023-01-28T12:55:34;93669.00;;;-3.61;88.14
16738;BME280;17906;47.684;10.806;2023-01-28T12:58:04;93664.00;;;-3.64;89.69
16738;BME280;17906;47.684;10.806;2023-01-28T13:00:34;93668.38;;;-3.73;88.70
16738;BME280;17906;47.684;10.806;2023-01-28T13:03:10;93661.75;;;-3.77;89.16